createdAt,value
2018-12-09T00:01:46.033Z,96757.64
2018-12-09T00:04:19.542Z,96750.45
2018-12-09T00:06:51.902Z,96749.58
2018-12-09T00:09:22.526Z,96750.13
2018-12-09T00:11:53.570Z,96737.88
2018-12-09T00:14:24.201Z,96754.65
2018-12-09T00:16:54.786Z,96746.03
2018-12-09T00:19:25.698Z,96754.65
2018-12-09T00:21:56.397Z,96744.22
2018-12-09T00:24:27.266Z,96734.86
2018-12-09T00:26:57.875Z,96728.42
2018-12-09T00:29:29.130Z,96731.77
2018-12-09T00:31:59.689Z,96743.64
2018-12-09T00:34:30.399Z,96782.14
2018-12-09T00:37:01.029Z,96771.78
2018-12-09T00:39:31.653Z,96760.69
2018-12-09T00:42:02.261Z,96781.73
2018-12-09T00:44:32.902Z,96751.61
2018-12-09T00:47:03.467Z,96737.52
2018-12-09T00:49:34.350Z,96741.25
2018-12-09T00:52:05.221Z,96740.11
2018-12-09T00:54:36.051Z,96727.11
2018-12-09T00:57:06.655Z,96699.50
2018-12-09T00:59:37.914Z,96712.48
2018-12-09T01:02:10.856Z,96707.36
2018-12-09T01:04:41.542Z,96707.09
2018-12-09T01:07:12.569Z,96713.77
2018-12-09T01:09:43.594Z,96709.64
2018-12-09T01:12:14.218Z,96692.17
2018-12-09T01:14:44.851Z,96700.11
2018-12-09T01:17:15.465Z,96692.33
2018-12-09T01:19:46.218Z,96693.53
2018-12-09T01:22:17.035Z,96678.65
2018-12-09T01:24:47.630Z,96685.24
2018-12-09T01:27:18.266Z,96698.27
2018-12-09T01:29:49.580Z,96689.55
2018-12-09T01:32:21.590Z,96673.77
2018-12-09T01:34:52.258Z,96672.33
2018-12-09T01:37:23.218Z,96667.37
2018-12-09T01:39:54.274Z,96668.49
2018-12-09T01:42:25.178Z,96660.71
2018-12-09T01:44:55.850Z,96659.41
2018-12-09T01:47:26.668Z,96647.22
2018-12-09T01:49:57.258Z,96643.70
2018-12-09T01:52:28.128Z,96646.16
2018-12-09T01:54:59.479Z,96639.44
2018-12-09T01:57:30.116Z,96646.91
2018-12-09T02:00:00.917Z,96665.72
2018-12-09T02:02:31.570Z,96654.94
2018-12-09T02:05:02.190Z,96662.77
2018-12-09T02:07:33.145Z,96667.09
2018-12-09T02:10:03.728Z,96664.73
2018-12-09T02:12:34.414Z,96662.27
2018-12-09T02:15:06.242Z,96660.55
2018-12-09T02:17:36.882Z,96650.36
2018-12-09T02:20:08.450Z,96631.08
2018-12-09T02:22:39.769Z,96631.50
2018-12-09T02:25:11.457Z,96627.66
2018-12-09T02:27:42.675Z,96623.16
2018-12-09T02:30:14.252Z,96625.48
2018-12-09T02:32:45.071Z,96624.98
2018-12-09T02:35:15.933Z,96617.16
2018-12-09T02:37:47.018Z,96595.06
2018-12-09T02:40:17.994Z,96611.48
2018-12-09T02:42:48.809Z,96601.87
2018-12-09T02:45:19.413Z,96578.03
2018-12-09T02:47:50.078Z,96607.07
2018-12-09T02:50:21.090Z,96592.90
2018-12-09T02:52:52.656Z,96589.92
2018-12-09T02:55:23.478Z,96578.31
2018-12-09T02:57:54.346Z,96580.11
2018-12-09T03:00:25.514Z,96593.64
2018-12-09T03:02:56.421Z,96614.83
2018-12-09T03:05:27.478Z,96626.03
2018-12-09T03:07:58.102Z,96645.59
2018-12-09T03:10:28.737Z,96663.73
2018-12-09T03:12:59.352Z,96657.30
2018-12-09T03:15:29.917Z,96686.80
2018-12-09T03:18:00.878Z,96644.95
2018-12-09T03:20:31.444Z,96657.66
2018-12-09T03:23:02.128Z,96667.30
2018-12-09T03:25:33.007Z,96661.13
2018-12-09T03:28:03.815Z,96658.92
2018-12-09T03:30:34.465Z,96657.81
2018-12-09T03:33:05.745Z,96653.86
2018-12-09T03:35:36.553Z,96664.13
2018-12-09T03:38:07.243Z,96653.77
2018-12-09T03:40:38.446Z,96662.87
2018-12-09T03:43:09.024Z,96679.32
2018-12-09T03:45:39.857Z,96674.44
2018-12-09T03:48:10.766Z,96672.33
2018-12-09T03:50:41.375Z,96653.08
2018-12-09T03:53:12.229Z,96652.55
2018-12-09T03:55:43.034Z,96659.73
2018-12-09T03:58:13.682Z,96655.16
2018-12-09T04:00:44.517Z,96655.70
2018-12-09T04:03:15.094Z,96655.30
2018-12-09T04:05:46.000Z,96660.92
2018-12-09T04:08:17.279Z,96658.59
2018-12-09T04:10:47.870Z,96660.61
2018-12-09T04:13:18.485Z,96669.50
2018-12-09T04:15:50.163Z,96678.97
2018-12-09T04:18:22.719Z,96672.33
2018-12-09T04:20:53.664Z,96680.40
2018-12-09T04:23:24.476Z,96673.76
2018-12-09T04:25:55.292Z,96676.72
2018-12-09T04:28:25.952Z,96669.36
2018-12-09T04:30:56.542Z,96661.56
2018-12-09T04:33:27.476Z,96663.70
2018-12-09T04:35:58.462Z,96660.48
2018-12-09T04:38:29.289Z,96664.78
2018-12-09T04:41:06.915Z,96665.81
2018-12-09T04:43:37.722Z,96675.83
2018-12-09T04:46:09.382Z,96688.05
2018-12-09T04:48:40.217Z,96688.17
2018-12-09T04:51:10.877Z,96682.48
2018-12-09T04:53:41.784Z,96677.63
2018-12-09T04:56:12.813Z,96680.45
2018-12-09T04:58:59.179Z,96666.81
2018-12-09T05:01:36.293Z,96687.16
2018-12-09T05:04:07.157Z,96679.16
2018-12-09T05:06:38.077Z,96694.55
2018-12-09T05:09:09.425Z,96701.12
2018-12-09T05:11:40.269Z,96696.03
2018-12-09T05:14:10.909Z,96696.03
2018-12-09T05:16:41.941Z,96692.48
2018-12-09T05:19:12.511Z,96711.32
2018-12-09T05:21:43.602Z,96709.57
2018-12-09T05:24:14.325Z,96707.81
2018-12-09T05:26:44.962Z,96707.04
2018-12-09T05:29:15.609Z,96713.74
2018-12-09T05:31:46.220Z,96710.50
2018-12-09T05:34:17.273Z,96698.72
2018-12-09T05:36:48.022Z,96713.43
2018-12-09T05:39:18.841Z,96716.71
2018-12-09T05:41:49.463Z,96719.70
2018-12-09T05:44:20.679Z,96719.22
2018-12-09T05:46:51.286Z,96726.21
2018-12-09T05:49:22.780Z,96719.09
2018-12-09T05:51:53.522Z,96725.56
2018-12-09T05:54:24.721Z,96726.59
2018-12-09T05:56:55.297Z,96724.81
2018-12-09T05:59:25.854Z,96724.90
2018-12-09T06:02:12.190Z,96724.48
2018-12-09T06:04:42.753Z,96735.48
2018-12-09T06:07:13.322Z,96722.79
2018-12-09T06:09:43.921Z,96728.58
2018-12-09T06:12:14.767Z,96738.98
2018-12-09T06:14:45.374Z,96751.48
2018-12-09T06:17:15.938Z,96755.88
2018-12-09T06:19:46.733Z,96768.16
2018-12-09T06:22:17.626Z,96781.34
2018-12-09T06:24:48.531Z,96769.70
2018-12-09T06:27:19.106Z,96769.59
2018-12-09T06:29:49.669Z,96781.06
2018-12-09T06:32:20.324Z,96801.73
2018-12-09T06:34:50.933Z,96832.92
2018-12-09T06:37:22.210Z,96825.31
2018-12-09T06:39:53.135Z,96837.23
2018-12-09T06:42:24.005Z,96826.12
2018-12-09T06:44:56.868Z,96837.66
2018-12-09T06:47:27.561Z,96818.66
2018-12-09T06:49:59.149Z,96810.55
2018-12-09T06:52:29.888Z,96819.39
2018-12-09T06:55:00.970Z,96822.45
2018-12-09T06:57:31.830Z,96816.34
2018-12-09T07:00:06.180Z,96825.89
2018-12-09T07:02:37.090Z,96842.02
2018-12-09T07:05:10.031Z,96854.55
2018-12-09T07:07:40.846Z,96845.58
2018-12-09T07:10:12.893Z,96858.09
2018-12-09T07:12:43.696Z,96861.14
2018-12-09T07:15:15.430Z,96859.25
2018-12-09T07:17:46.329Z,96860.91
2018-12-09T07:20:17.471Z,96866.80
2018-12-09T07:22:48.314Z,96874.94
2018-12-09T07:25:19.418Z,96876.37
2018-12-09T07:27:50.198Z,96876.95
2018-12-09T07:30:20.895Z,96872.73
2018-12-09T07:32:51.689Z,96886.27
2018-12-09T07:35:22.257Z,96882.26
2018-12-09T07:37:53.079Z,96894.16
2018-12-09T07:40:23.889Z,96901.47
2018-12-09T07:42:54.473Z,96904.31
2018-12-09T07:45:25.270Z,96919.41
2018-12-09T07:47:55.866Z,96913.04
2018-12-09T07:50:26.797Z,96934.77
2018-12-09T07:52:57.413Z,96930.75
2018-12-09T07:55:28.354Z,96926.84
2018-12-09T07:57:58.984Z,96931.89
2018-12-09T08:00:29.657Z,96941.59
2018-12-09T08:03:00.267Z,96946.19
2018-12-09T08:05:31.193Z,96955.73
2018-12-09T08:08:01.790Z,96951.84
2018-12-09T08:10:32.438Z,96952.44
2018-12-09T08:13:03.054Z,96971.45
2018-12-09T08:15:33.807Z,96956.94
2018-12-09T08:18:04.442Z,96975.71
2018-12-09T08:20:35.630Z,96977.70
2018-12-09T08:23:06.202Z,96969.78
2018-12-09T08:25:36.933Z,96969.30
2018-12-09T08:28:07.601Z,96977.67
2018-12-09T08:30:38.207Z,96990.06
2018-12-09T08:33:08.819Z,96984.86
2018-12-09T08:35:39.463Z,96990.75
2018-12-09T08:38:10.302Z,96988.72
2018-12-09T08:40:40.946Z,96996.53
2018-12-09T08:43:11.508Z,96995.34
2018-12-09T08:45:42.093Z,96992.02
2018-12-09T08:48:12.649Z,96998.19
2018-12-09T08:50:43.434Z,96992.26
2018-12-09T08:53:14.149Z,96988.36
2018-12-09T08:55:44.737Z,96989.90
2018-12-09T08:58:15.538Z,96977.50
2018-12-09T09:00:46.157Z,96989.53
2018-12-09T09:03:16.801Z,96981.65
2018-12-09T09:05:47.418Z,96990.14
2018-12-09T09:08:18.066Z,97000.42
2018-12-09T09:10:48.638Z,96999.58
2018-12-09T09:13:19.749Z,97002.42
2018-12-09T09:15:50.417Z,97003.84
2018-12-09T09:18:21.168Z,97014.16
2018-12-09T09:20:51.746Z,97013.92
2018-12-09T09:23:22.643Z,97016.67
2018-12-09T09:25:53.378Z,97018.81
2018-12-09T09:28:24.359Z,96999.56
2018-12-09T09:30:55.802Z,97008.20
2018-12-09T09:33:26.422Z,97017.17
2018-12-09T09:35:57.034Z,97011.03
2018-12-09T09:38:27.719Z,97010.79
2018-12-09T09:40:58.256Z,97014.81
2018-12-09T09:43:28.863Z,97007.71
2018-12-09T09:45:59.486Z,97004.05
2018-12-09T09:48:30.131Z,97008.92
2018-12-09T09:51:00.727Z,97012.10
2018-12-09T09:53:31.401Z,97009.38
2018-12-09T09:56:02.142Z,97003.70
2018-12-09T09:58:32.776Z,97013.04
2018-12-09T10:01:03.912Z,97003.70
2018-12-09T10:03:34.622Z,96997.08
2018-12-09T10:06:05.662Z,96993.30
2018-12-09T10:08:36.254Z,96993.30
2018-12-09T10:11:06.897Z,96981.84
2018-12-09T10:13:38.179Z,96996.02
2018-12-09T10:16:09.585Z,96986.92
2018-12-09T10:18:40.255Z,96986.47
2018-12-09T10:21:10.889Z,96984.80
2018-12-09T10:23:41.593Z,96984.69
2018-12-09T10:26:12.221Z,96998.14
2018-12-09T10:28:43.177Z,96987.14
2018-12-09T10:31:14.822Z,96988.47
2018-12-09T10:33:45.538Z,96981.84
2018-12-09T10:36:16.281Z,96987.02
2018-12-09T10:38:47.145Z,96986.56
2018-12-09T10:41:17.737Z,96989.98
2018-12-09T10:43:48.416Z,96982.55
2018-12-09T10:46:19.131Z,96998.59
2018-12-09T10:48:49.959Z,96990.19
2018-12-09T10:51:20.536Z,96997.90
2018-12-09T10:53:51.132Z,96989.98
2018-12-09T10:56:22.005Z,96989.82
2018-12-09T10:58:52.668Z,97001.16
2018-12-09T11:04:22.416Z,96987.14
2018-12-09T11:06:53.151Z,97002.86
2018-12-09T11:09:23.746Z,96997.53
2018-12-09T11:11:54.343Z,96992.30
2018-12-09T11:14:25.014Z,96998.68
2018-12-09T11:16:55.618Z,97016.76
2018-12-09T11:19:26.446Z,97004.61
2018-12-09T11:21:57.053Z,96999.77
2018-12-09T11:24:28.775Z,96999.20
2018-12-09T11:26:59.446Z,96983.48
2018-12-09T11:29:30.141Z,96993.06
2018-12-09T11:32:00.742Z,96992.82
2018-12-09T11:34:31.493Z,96985.23
2018-12-09T11:37:03.158Z,96981.13
2018-12-09T11:39:33.841Z,96983.00
2018-12-09T11:42:04.417Z,96983.27
2018-12-09T11:44:35.709Z,96981.84
2018-12-09T11:47:06.531Z,96973.23
2018-12-09T11:49:37.123Z,96977.88
2018-12-09T11:52:08.269Z,96967.94
2018-12-09T11:54:38.894Z,96982.35
2018-12-09T11:57:09.509Z,96978.00
2018-12-09T11:59:40.183Z,96971.73
2018-12-09T12:02:10.834Z,96967.11
2018-12-09T12:04:41.685Z,96977.30
2018-12-09T12:07:12.441Z,96979.89
2018-12-09T12:09:43.818Z,96973.86
2018-12-09T12:12:14.586Z,96976.33
2018-12-09T12:14:45.181Z,96975.37
2018-12-09T12:17:16.182Z,96964.41
2018-12-09T12:19:46.823Z,96964.49
2018-12-09T12:22:17.400Z,96967.21
2018-12-09T12:24:48.108Z,96961.41
2018-12-09T12:27:18.749Z,96963.53
2018-12-09T12:29:50.004Z,96958.24
2018-12-09T12:32:20.599Z,96961.30
2018-12-09T12:34:51.337Z,96960.08
2018-12-09T12:37:21.995Z,96953.83
2018-12-09T12:39:52.559Z,96951.67
2018-12-09T12:42:23.186Z,96955.66
2018-12-09T12:44:53.902Z,96954.60
2018-12-09T12:47:24.517Z,96947.12
2018-12-09T12:49:55.155Z,96939.43
2018-12-09T12:52:26.328Z,96951.20
2018-12-09T12:54:57.031Z,96951.94
2018-12-09T12:57:27.687Z,96949.59
2018-12-09T12:59:58.440Z,96952.87
2018-12-09T13:02:29.006Z,96959.17
2018-12-09T13:04:59.689Z,96954.78
2018-12-09T13:07:30.472Z,96949.83
2018-12-09T13:10:01.127Z,96954.66
2018-12-09T13:12:32.879Z,96964.45
2018-12-09T13:15:04.446Z,96964.81
2018-12-09T13:17:35.126Z,96965.27
2018-12-09T13:20:08.155Z,96970.14
2018-12-09T13:22:38.773Z,96955.11
2018-12-09T13:25:09.914Z,96959.63
2018-12-09T13:27:41.167Z,96963.77
2018-12-09T13:30:12.792Z,96969.47
2018-12-09T13:32:44.183Z,96968.33
2018-12-09T13:35:15.219Z,96978.13
2018-12-09T13:37:46.683Z,96974.70
2018-12-09T13:40:18.411Z,96971.25
2018-12-09T13:42:49.559Z,96971.98
2018-12-09T13:45:20.130Z,96970.56
2018-12-09T13:47:51.380Z,96971.74
2018-12-09T13:50:22.043Z,96981.66
2018-12-09T13:52:52.718Z,96971.13
2018-12-09T13:55:23.379Z,96982.38
2018-12-09T13:57:54.182Z,96980.23
2018-12-09T14:00:25.102Z,96977.88
2018-12-09T14:02:55.670Z,96988.07
2018-12-09T14:08:14.835Z,97006.39
2018-12-09T14:10:45.635Z,97004.88
2018-12-09T14:13:16.478Z,97032.30
2018-12-09T14:15:47.121Z,97018.59
2018-12-09T14:18:17.726Z,97029.45
2018-12-09T14:20:48.350Z,97033.84
2018-12-09T14:23:19.361Z,97028.87
2018-12-09T14:25:50.009Z,97032.89
2018-12-09T14:28:20.673Z,97045.17
2018-12-09T14:30:51.302Z,97046.02
2018-12-09T14:33:21.943Z,97052.84
2018-12-09T14:35:52.581Z,97045.64
2018-12-09T14:38:23.413Z,97047.77
2018-12-09T14:40:54.549Z,97051.77
2018-12-09T14:43:25.165Z,97047.17
2018-12-09T14:45:55.755Z,97040.45
2018-12-09T14:48:26.667Z,97036.87
2018-12-09T14:50:57.481Z,97042.58
2018-12-09T14:53:28.078Z,97041.38
2018-12-09T14:55:58.910Z,97046.46
2018-12-09T14:58:29.539Z,97038.45
2018-12-09T15:01:00.222Z,97048.26
2018-12-09T15:03:30.843Z,97052.03
2018-12-09T15:06:01.459Z,97053.20
2018-12-09T15:08:32.098Z,97051.20
2018-12-09T15:11:03.213Z,97040.70
2018-12-09T15:13:34.280Z,97048.15
2018-12-09T15:16:04.942Z,97038.67
2018-12-09T15:18:35.882Z,97042.81
2018-12-09T15:21:06.579Z,97057.94
2018-12-09T15:23:37.138Z,97049.89
2018-12-09T15:26:08.051Z,97055.11
2018-12-09T15:28:39.217Z,97066.69
2018-12-09T15:31:09.815Z,97052.27
2018-12-09T15:33:40.560Z,97061.36
2018-12-09T15:36:11.151Z,97067.62
2018-12-09T15:38:41.969Z,97069.28
2018-12-09T15:41:12.565Z,97073.42
2018-12-09T15:43:43.218Z,97076.23
2018-12-09T15:46:14.198Z,97076.62
2018-12-09T15:48:51.600Z,97084.75
2018-12-09T15:51:23.354Z,97085.46
2018-12-09T15:53:55.789Z,97086.41
2018-12-09T15:56:26.460Z,97103.88
2018-12-09T15:58:57.221Z,97108.27
2018-12-09T16:01:27.834Z,97103.41
2018-12-09T16:03:59.015Z,97113.46
2018-12-09T16:06:29.702Z,97119.95
2018-12-09T16:09:01.494Z,97129.88
2018-12-09T16:11:33.746Z,97125.14
2018-12-09T16:14:04.998Z,97137.69
2018-12-09T16:16:35.806Z,97146.19
2018-12-09T16:19:06.452Z,97157.99
2018-12-09T16:21:37.069Z,97153.75
2018-12-09T16:24:08.153Z,97166.77
2018-12-09T16:26:38.728Z,97168.06
2018-12-09T16:29:09.513Z,97172.30
2018-12-09T16:31:40.173Z,97178.68
2018-12-09T16:34:10.788Z,97179.39
2018-12-09T16:36:41.365Z,97183.66
2018-12-09T16:39:12.465Z,97186.70
2018-12-09T16:41:43.214Z,97192.64
2018-12-09T16:44:13.882Z,97184.83
2018-12-09T16:46:44.594Z,97194.78
2018-12-09T16:49:15.242Z,97198.31
2018-12-09T16:51:46.063Z,97195.70
2018-12-09T16:54:17.506Z,97197.38
2018-12-09T16:56:48.241Z,97220.43
2018-12-09T16:59:19.104Z,97222.30
2018-12-09T17:01:49.725Z,97224.53
2018-12-09T17:04:20.391Z,97222.64
2018-12-09T17:06:50.989Z,97231.51
2018-12-09T17:09:21.803Z,97244.39
2018-12-09T17:11:52.434Z,97252.56
2018-12-09T17:14:23.022Z,97254.23
2018-12-09T17:16:53.733Z,97258.72
2018-12-09T17:19:25.594Z,97259.42
2018-12-09T17:21:56.441Z,97260.02
2018-12-09T17:24:27.058Z,97273.86
2018-12-09T17:26:57.715Z,97290.63
2018-12-09T17:29:28.462Z,97291.56
2018-12-09T17:31:59.124Z,97300.77
2018-12-09T17:34:29.729Z,97300.18
2018-12-09T17:37:00.329Z,97302.33
2018-12-09T17:39:30.942Z,97300.66
2018-12-09T17:42:01.548Z,97308.20
2018-12-09T17:44:32.407Z,97306.91
2018-12-09T17:47:03.348Z,97308.09
2018-12-09T17:49:33.969Z,97304.67
2018-12-09T17:52:04.686Z,97320.75
2018-12-09T17:54:38.249Z,97320.64
2018-12-09T17:57:09.306Z,97337.28
2018-12-09T17:59:39.925Z,97333.98
2018-12-09T18:02:10.551Z,97350.02
2018-12-09T18:04:41.249Z,97349.69
2018-12-09T18:07:11.825Z,97364.09
2018-12-09T18:09:42.494Z,97359.49
2018-12-09T18:12:13.107Z,97363.77
2018-12-09T18:14:43.685Z,97373.94
2018-12-09T18:17:14.381Z,97388.80
2018-12-09T18:19:44.990Z,97389.35
2018-12-09T18:22:15.573Z,97392.47
2018-12-09T18:24:46.189Z,97390.21
2018-12-09T18:27:16.797Z,97393.63
2018-12-09T18:29:47.439Z,97400.49
2018-12-09T18:32:18.486Z,97401.75
2018-12-09T18:34:49.614Z,97410.04
2018-12-09T18:37:20.674Z,97412.57
2018-12-09T18:39:51.833Z,97416.69
2018-12-09T18:42:22.390Z,97419.66
2018-12-09T18:44:53.026Z,97421.78
2018-12-09T18:47:23.598Z,97445.02
2018-12-09T18:49:54.435Z,97441.88
2018-12-09T18:52:25.026Z,97454.66
2018-12-09T18:54:56.006Z,97460.45
2018-12-09T18:57:26.590Z,97466.20
2018-12-09T18:59:57.578Z,97484.50
2018-12-09T19:02:28.198Z,97489.11
2018-12-09T19:04:59.718Z,97500.21
2018-12-09T19:07:30.758Z,97504.22
2018-12-09T19:10:02.334Z,97504.22
2018-12-09T19:12:34.258Z,97515.11
2018-12-09T19:15:05.974Z,97520.90
2018-12-09T19:17:36.561Z,97535.57
2018-12-09T19:20:08.019Z,97540.83
2018-12-09T19:22:39.202Z,97552.02
2018-12-09T19:25:09.957Z,97554.86
2018-12-09T19:27:40.642Z,97559.71
2018-12-09T19:30:11.246Z,97561.83
2018-12-09T19:32:41.873Z,97574.52
2018-12-09T19:35:12.537Z,97579.02
2018-12-09T19:37:43.200Z,97588.89
2018-12-09T19:40:14.268Z,97588.06
2018-12-09T19:42:45.057Z,97598.63
2018-12-09T19:45:15.718Z,97606.22
2018-12-09T19:47:46.300Z,97616.16
2018-12-09T19:50:17.458Z,97616.53
2018-12-09T19:52:48.148Z,97621.53
2018-12-09T19:55:18.790Z,97628.30
2018-12-09T19:57:49.863Z,97635.24
2018-12-09T20:00:20.491Z,97643.63
2018-12-09T20:02:51.087Z,97638.53
2018-12-09T20:05:21.670Z,97655.06
2018-12-09T20:07:52.384Z,97655.13
2018-12-09T20:10:22.958Z,97662.66
2018-12-09T20:12:53.649Z,97667.65
2018-12-09T20:15:24.393Z,97672.95
2018-12-09T20:17:55.036Z,97679.35
2018-12-09T20:20:25.651Z,97680.10
2018-12-09T20:22:56.284Z,97686.23
2018-12-09T20:25:26.990Z,97699.36
2018-12-09T20:27:57.602Z,97704.49
2018-12-09T20:30:28.254Z,97702.84
2018-12-09T20:32:58.880Z,97712.05
2018-12-09T20:35:29.544Z,97717.25
2018-12-09T20:38:00.140Z,97722.34
2018-12-09T20:40:30.774Z,97726.25
2018-12-09T20:43:01.430Z,97731.80
2018-12-09T20:45:32.001Z,97732.34
2018-12-09T20:48:02.901Z,97729.87
2018-12-09T20:50:33.570Z,97729.87
2018-12-09T20:53:05.642Z,97732.69
2018-12-09T20:55:36.246Z,97741.44
2018-12-09T20:58:07.102Z,97746.98
2018-12-09T21:00:38.142Z,97752.91
2018-12-09T21:03:08.991Z,97757.97
2018-12-09T21:05:39.642Z,97761.80
2018-12-09T21:08:10.291Z,97777.41
2018-12-09T21:10:41.713Z,97771.95
2018-12-09T21:13:19.034Z,97775.48
2018-12-09T21:15:51.381Z,97781.27
2018-12-09T21:18:22.335Z,97787.38
2018-12-09T21:20:53.478Z,97791.66
2018-12-09T21:23:24.416Z,97790.61
2018-12-09T21:25:55.127Z,97794.91
2018-12-09T21:28:25.981Z,97798.27
2018-12-09T21:30:56.569Z,97801.70
2018-12-09T21:33:27.254Z,97807.01
2018-12-09T21:35:57.933Z,97808.78
2018-12-09T21:38:28.630Z,97812.20
2018-12-09T21:40:59.329Z,97824.96
2018-12-09T21:43:30.175Z,97829.20
2018-12-09T21:46:00.782Z,97840.66
2018-12-09T21:48:31.553Z,97837.86
2018-12-09T21:51:02.139Z,97845.38
2018-12-09T21:53:32.818Z,97843.16
2018-12-09T21:56:03.405Z,97847.41
2018-12-09T21:58:34.117Z,97848.50
2018-12-09T22:01:05.408Z,97854.48
2018-12-09T22:03:36.146Z,97851.16
2018-12-09T22:06:07.820Z,97854.59
2018-12-09T22:08:38.571Z,97863.59
2018-12-09T22:11:09.141Z,97873.16
2018-12-09T22:13:40.713Z,97874.84
2018-12-09T22:16:11.299Z,97883.07
2018-12-09T22:18:42.829Z,97881.69
2018-12-09T22:21:13.414Z,97888.38
2018-12-09T22:23:44.062Z,97887.27
2018-12-09T22:26:14.683Z,97894.92
2018-12-09T22:28:45.322Z,97894.29
2018-12-09T22:31:16.050Z,97904.50
2018-12-09T22:33:46.942Z,97901.33
2018-12-09T22:36:17.610Z,97898.19
2018-12-09T22:38:48.512Z,97903.58
2018-12-09T22:41:19.082Z,97912.77
2018-12-09T22:43:50.635Z,97917.05
2018-12-09T22:46:21.278Z,97916.95
2018-12-09T22:48:52.639Z,97922.25
2018-12-09T22:51:23.250Z,97928.45
2018-12-09T22:53:54.388Z,97935.05
2018-12-09T22:56:25.497Z,97930.52
2018-12-09T22:58:56.242Z,97933.65
2018-12-09T23:01:27.262Z,97928.45
2018-12-09T23:03:58.270Z,97936.44
2018-12-09T23:06:28.855Z,97940.72
2018-12-09T23:08:59.494Z,97943.37
2018-12-09T23:11:30.113Z,97937.89
2018-12-09T23:14:00.759Z,97954.53
2018-12-09T23:16:31.382Z,97963.91
2018-12-09T23:19:01.994Z,97963.90
2018-12-09T23:21:32.597Z,97970.77
2018-12-09T23:24:03.190Z,97971.88
2018-12-09T23:26:33.761Z,97969.94
2018-12-09T23:29:05.270Z,97990.08
2018-12-09T23:31:35.826Z,97989.52
2018-12-09T23:34:06.417Z,97996.01
2018-12-09T23:36:37.090Z,98004.36
2018-12-09T23:39:08.335Z,98004.55
2018-12-09T23:41:38.898Z,98014.84
2018-12-09T23:44:10.145Z,98019.56
2018-12-09T23:46:41.043Z,98022.34
2018-12-09T23:49:11.650Z,98020.37
2018-12-09T23:51:42.193Z,98028.64
2018-12-09T23:54:13.010Z,98026.22
2018-12-09T23:56:43.574Z,98028.53
2018-12-09T23:59:14.129Z,98024.45
